createdAt,value
2022-10-22T00:01:20.586Z,12.48
2022-10-22T00:03:53.532Z,11.40
2022-10-22T00:06:26.573Z,12.25
2022-10-22T00:08:59.164Z,9.23
2022-10-22T00:11:32.118Z,10.35
2022-10-22T00:14:04.959Z,8.70
2022-10-22T00:16:37.738Z,11.27
2022-10-22T00:19:11.521Z,9.70
2022-10-22T00:21:44.387Z,10.27
2022-10-22T00:24:16.776Z,9.65
2022-10-22T00:26:49.606Z,9.35
2022-10-22T00:29:22.403Z,9.90
2022-10-22T00:34:28.804Z,11.40
2022-10-22T00:37:01.750Z,13.05
2022-10-22T00:39:34.367Z,10.23
2022-10-22T00:42:07.455Z,12.38
2022-10-22T00:45:07.892Z,7.18
2022-10-22T00:47:44.073Z,8.77
2022-10-22T00:50:19.454Z,7.72
2022-10-22T00:52:52.637Z,6.40
2022-10-22T00:55:26.235Z,11.23
2022-10-22T00:58:00.230Z,7.97
2022-10-22T01:00:33.271Z,10.23
2022-10-22T01:03:06.621Z,9.80
2022-10-22T01:05:51.071Z,12.68
2022-10-22T01:08:26.650Z,10.90
2022-10-22T01:11:02.040Z,9.07
2022-10-22T01:13:50.205Z,11.97
2022-10-22T01:16:28.831Z,9.50
2022-10-22T01:19:20.944Z,9.07
2022-10-22T01:21:56.418Z,6.57
2022-10-22T01:24:47.723Z,10.93
2022-10-22T01:27:23.108Z,11.88
2022-10-22T01:30:16.178Z,10.17
2022-10-22T01:33:01.985Z,12.63
2022-10-22T01:35:37.339Z,10.32
2022-10-22T01:38:13.617Z,12.13
2022-10-22T01:40:47.555Z,16.25
2022-10-22T01:43:20.191Z,11.73
2022-10-22T01:45:56.635Z,12.05
2022-10-22T01:48:32.170Z,11.13
2022-10-22T01:51:23.756Z,11.25
2022-10-22T01:54:16.437Z,7.50
2022-10-22T01:56:55.056Z,7.43
2022-10-22T01:59:27.592Z,9.50
2022-10-22T02:02:18.980Z,10.30
2022-10-22T02:04:56.091Z,8.02
2022-10-22T02:07:35.463Z,10.60
2022-10-22T02:10:09.107Z,9.73
2022-10-22T02:12:43.238Z,8.18
2022-10-22T02:15:18.365Z,7.90
2022-10-22T02:17:51.982Z,11.60
2022-10-22T02:20:27.824Z,12.38
2022-10-22T02:23:01.078Z,12.07
2022-10-22T02:25:35.698Z,8.63
2022-10-22T02:28:24.634Z,10.25
2022-10-22T02:31:00.750Z,8.98
2022-10-22T02:33:36.766Z,7.83
2022-10-22T02:36:09.703Z,7.90
2022-10-22T02:38:42.980Z,10.35
2022-10-22T02:41:16.686Z,11.32
2022-10-22T02:43:51.277Z,9.75
2022-10-22T02:46:24.738Z,11.60
2022-10-22T02:48:57.467Z,10.67
2022-10-22T02:51:29.876Z,9.23
2022-10-22T02:54:02.697Z,8.60
2022-10-22T02:56:35.289Z,11.40
2022-10-22T02:59:08.160Z,8.15
2022-10-22T03:01:40.761Z,9.10
2022-10-22T03:04:13.535Z,10.67
2022-10-22T03:06:48.976Z,10.10
2022-10-22T03:09:24.134Z,9.40
2022-10-22T03:11:57.894Z,7.18
2022-10-22T03:14:30.673Z,13.32
2022-10-22T03:17:03.217Z,8.70
2022-10-22T03:19:36.162Z,8.95
2022-10-22T03:22:25.785Z,9.43
2022-10-22T03:25:00.449Z,9.82
2022-10-22T03:27:33.988Z,9.48
2022-10-22T03:30:07.369Z,9.07
2022-10-22T03:32:39.895Z,9.43
2022-10-22T03:35:12.739Z,8.32
2022-10-22T03:37:45.333Z,10.23
2022-10-22T03:40:18.747Z,11.93
2022-10-22T03:42:51.293Z,14.70
2022-10-22T03:45:24.185Z,10.52
2022-10-22T03:47:56.694Z,12.80
2022-10-22T03:50:29.481Z,10.05
2022-10-22T03:53:01.901Z,11.17
2022-10-22T03:55:34.751Z,12.13
2022-10-22T03:58:07.270Z,10.85
2022-10-22T04:00:40.133Z,9.20
2022-10-22T04:03:12.692Z,9.02
2022-10-22T04:05:45.682Z,10.27
2022-10-22T04:08:18.166Z,10.40
2022-10-22T04:10:51.468Z,7.43
2022-10-22T04:13:24.029Z,11.07
2022-10-22T04:15:57.262Z,8.38
2022-10-22T04:18:29.725Z,11.27
2022-10-22T04:21:02.620Z,12.32
2022-10-22T04:23:35.510Z,9.05
2022-10-22T04:26:08.536Z,12.90
2022-10-22T04:28:41.144Z,10.45
2022-10-22T04:31:14.931Z,10.52
2022-10-22T04:33:47.831Z,10.23
2022-10-22T04:36:23.033Z,11.23
2022-10-22T04:38:57.233Z,11.93
2022-10-22T04:41:34.233Z,12.75
2022-10-22T04:44:11.075Z,6.90
2022-10-22T04:46:49.061Z,9.95
2022-10-22T04:49:21.657Z,8.00
2022-10-22T04:51:54.441Z,8.77
2022-10-22T04:54:30.504Z,10.82
2022-10-22T04:57:06.036Z,10.20
2022-10-22T04:59:38.565Z,8.07
2022-10-22T05:02:11.325Z,9.70
2022-10-22T05:04:44.752Z,9.93
2022-10-22T05:07:17.806Z,10.00
2022-10-22T05:09:50.683Z,8.52
2022-10-22T05:12:23.497Z,9.57
2022-10-22T05:14:56.385Z,11.23
2022-10-22T05:17:29.367Z,9.48
2022-10-22T05:20:01.911Z,12.70
2022-10-22T05:22:35.353Z,9.48
2022-10-22T05:25:08.112Z,9.55
2022-10-22T05:27:41.332Z,12.88
2022-10-22T05:30:14.114Z,12.52
2022-10-22T05:32:46.907Z,11.88
2022-10-22T05:35:19.384Z,7.70
2022-10-22T05:37:52.241Z,8.55
2022-10-22T05:40:30.910Z,11.52
2022-10-22T05:43:04.338Z,8.48
2022-10-22T05:45:40.470Z,8.43
2022-10-22T05:48:13.489Z,8.10
2022-10-22T05:50:51.072Z,8.50
2022-10-22T05:53:23.968Z,8.40
2022-10-22T05:55:56.548Z,8.55
2022-10-22T05:58:29.610Z,8.35
2022-10-22T06:01:11.568Z,10.40
2022-10-22T06:03:45.264Z,10.48
2022-10-22T06:06:20.756Z,10.70
2022-10-22T06:08:55.082Z,11.80
2022-10-22T06:11:32.502Z,7.55
2022-10-22T06:14:07.918Z,10.85
2022-10-22T06:16:41.179Z,9.10
2022-10-22T06:19:15.106Z,6.72
2022-10-22T06:21:48.101Z,8.82
2022-10-22T06:24:20.997Z,9.10
2022-10-22T06:26:53.683Z,9.57
2022-10-22T06:29:26.729Z,11.70
2022-10-22T06:31:59.149Z,9.07
2022-10-22T06:34:32.007Z,16.45
2022-10-22T06:37:04.840Z,29.73
2022-10-22T06:39:37.725Z,13.18
2022-10-22T06:42:10.757Z,19.17
2022-10-22T06:44:45.613Z,9.75
2022-10-22T06:47:18.198Z,9.30
2022-10-22T06:49:51.053Z,11.32
2022-10-22T06:52:23.903Z,10.60
2022-10-22T06:54:56.698Z,9.38
2022-10-22T06:57:30.240Z,10.27
2022-10-22T07:00:03.191Z,9.25
2022-10-22T07:02:35.986Z,8.60
2022-10-22T07:05:09.128Z,8.38
2022-10-22T07:07:41.606Z,9.43
2022-10-22T07:10:14.446Z,30.48
2022-10-22T07:12:47.033Z,19.38
2022-10-22T07:15:19.917Z,11.63
2022-10-22T07:17:52.431Z,11.82
2022-10-22T07:20:25.214Z,10.27
2022-10-22T07:22:57.748Z,8.15
2022-10-22T07:25:30.633Z,8.68
2022-10-22T07:28:03.057Z,11.30
2022-10-22T07:30:37.285Z,13.90
2022-10-22T07:33:09.809Z,24.48
2022-10-22T07:35:42.721Z,20.88
2022-10-22T07:38:15.211Z,16.60
2022-10-22T07:40:48.076Z,16.50
2022-10-22T07:43:20.637Z,32.42
2022-10-22T07:45:56.079Z,29.55
2022-10-22T07:48:29.006Z,15.45
2022-10-22T07:51:02.370Z,20.73
2022-10-22T07:53:35.495Z,13.23
2022-10-22T07:56:08.651Z,9.98
2022-10-22T07:58:41.933Z,17.35
2022-10-22T08:01:14.709Z,21.20
2022-10-22T08:03:47.284Z,10.43
2022-10-22T08:06:20.517Z,35.92
2022-10-22T08:08:53.105Z,32.43
2022-10-22T08:11:27.195Z,25.52
2022-10-22T08:14:00.227Z,9.70
2022-10-22T08:16:33.037Z,10.23
2022-10-22T08:19:05.467Z,8.55
2022-10-22T08:21:38.312Z,13.38
2022-10-22T08:24:18.604Z,14.13
2022-10-22T08:26:58.588Z,10.20
2022-10-22T08:29:36.312Z,13.10
2022-10-22T08:32:09.140Z,12.32
2022-10-22T08:34:41.632Z,11.73
2022-10-22T08:37:14.733Z,9.15
2022-10-22T08:39:47.255Z,18.70
2022-10-22T08:42:29.382Z,14.52
2022-10-22T08:45:18.156Z,9.38
2022-10-22T08:48:06.602Z,8.27
2022-10-22T08:50:40.990Z,8.90
2022-10-22T08:53:16.864Z,9.30
2022-10-22T08:55:53.829Z,12.07
2022-10-22T08:58:35.035Z,15.73
2022-10-22T09:01:13.379Z,28.27
2022-10-22T09:03:50.871Z,23.90
2022-10-22T09:06:27.018Z,26.13
2022-10-22T09:09:00.719Z,12.10
2022-10-22T09:11:38.125Z,15.45
2022-10-22T09:16:54.050Z,19.85
2022-10-22T09:19:49.860Z,13.35
2022-10-22T09:22:22.371Z,14.25
2022-10-22T09:25:10.249Z,16.35
2022-10-22T09:27:43.239Z,20.57
2022-10-22T09:30:18.145Z,12.38
2022-10-22T09:33:11.255Z,19.13
2022-10-22T09:35:51.428Z,11.48
2022-10-22T09:38:26.586Z,17.30
2022-10-22T09:41:00.447Z,9.32
2022-10-22T09:43:33.227Z,16.30
2022-10-22T09:46:07.890Z,18.52
2022-10-22T09:48:42.366Z,15.63
2022-10-22T09:51:22.687Z,11.15
2022-10-22T09:53:59.165Z,14.57
2022-10-22T09:56:35.998Z,13.85
2022-10-22T09:59:18.392Z,15.23
2022-10-22T10:02:04.963Z,11.45
2022-10-22T10:04:48.320Z,10.90
2022-10-22T10:07:30.523Z,10.60
2022-10-22T10:10:17.428Z,10.55
2022-10-22T10:13:00.982Z,13.80
2022-10-22T10:15:36.928Z,10.95
2022-10-22T10:18:24.877Z,12.95
2022-10-22T10:21:10.743Z,13.88
2022-10-22T10:23:51.254Z,11.13
2022-10-22T10:26:28.798Z,13.37
2022-10-22T10:29:11.319Z,12.38
2022-10-22T10:31:55.822Z,11.68
2022-10-22T10:34:34.451Z,9.63
2022-10-22T10:37:18.352Z,12.65
2022-10-22T10:40:09.469Z,10.05
2022-10-22T10:43:07.059Z,10.25
2022-10-22T10:45:55.810Z,14.73
2022-10-22T10:48:31.559Z,11.45
2022-10-22T10:51:22.954Z,11.02
2022-10-22T10:54:13.871Z,9.52
2022-10-22T10:57:12.368Z,17.77
2022-10-22T10:59:58.909Z,13.35
2022-10-22T11:02:50.225Z,13.38
2022-10-22T11:05:32.703Z,15.70
2022-10-22T11:08:10.051Z,14.75
2022-10-22T11:10:45.983Z,14.18
2022-10-22T11:13:27.761Z,35.28
2022-10-22T11:16:03.269Z,18.67
2022-10-22T11:19:04.867Z,19.67
2022-10-22T11:21:59.861Z,14.18
2022-10-22T11:24:47.045Z,15.35
2022-10-22T11:27:29.465Z,14.27
2022-10-22T11:30:14.062Z,14.50
2022-10-22T11:32:59.723Z,12.27
2022-10-22T11:35:40.903Z,11.23
2022-10-22T11:38:24.753Z,11.27
2022-10-22T11:41:10.033Z,12.05
2022-10-22T11:44:01.745Z,12.23
2022-10-22T11:46:39.399Z,10.93
2022-10-22T11:49:14.755Z,10.70
2022-10-22T11:51:47.970Z,11.77
2022-10-22T11:54:26.803Z,12.98
2022-10-22T11:57:15.296Z,10.05
2022-10-22T11:59:47.659Z,9.68
2022-10-22T12:02:29.824Z,10.63
2022-10-22T12:05:21.063Z,10.70
2022-10-22T12:07:58.686Z,12.38
2022-10-22T12:10:35.862Z,11.40
2022-10-22T12:13:13.085Z,9.45
2022-10-22T12:15:49.533Z,11.75
2022-10-22T12:18:25.126Z,15.68
2022-10-22T12:20:57.689Z,11.05
2022-10-22T12:23:32.608Z,17.77
2022-10-22T12:26:05.818Z,12.10
2022-10-22T12:28:41.639Z,10.65
2022-10-22T12:31:16.437Z,14.20
2022-10-22T12:33:59.895Z,17.08
2022-10-22T12:36:34.860Z,22.05
2022-10-22T12:39:15.473Z,18.55
2022-10-22T12:41:48.065Z,20.00
2022-10-22T12:44:20.992Z,15.27
2022-10-22T12:46:56.961Z,13.93
2022-10-22T12:49:38.901Z,12.15
2022-10-22T12:52:18.991Z,14.07
2022-10-22T12:54:52.928Z,13.63
2022-10-22T12:57:25.542Z,13.30
2022-10-22T13:02:31.335Z,14.05
2022-10-22T13:05:07.821Z,14.93
2022-10-22T13:07:42.245Z,11.98
2022-10-22T13:10:17.489Z,15.77
2022-10-22T13:12:51.021Z,16.75
2022-10-22T13:15:34.030Z,15.50
2022-10-22T13:18:17.712Z,12.93
2022-10-22T13:21:03.661Z,12.27
2022-10-22T13:23:36.484Z,13.63
2022-10-22T13:26:17.194Z,20.38
2022-10-22T13:28:54.587Z,10.13
2022-10-22T13:31:28.869Z,16.13
2022-10-22T13:34:06.600Z,14.30
2022-10-22T13:36:42.699Z,16.00
2022-10-22T13:39:24.736Z,14.95
2022-10-22T13:41:57.573Z,17.13
2022-10-22T13:44:30.073Z,13.32
2022-10-22T13:47:03.095Z,22.35
2022-10-22T13:49:35.576Z,14.75
2022-10-22T13:52:10.725Z,15.48
2022-10-22T13:54:43.225Z,19.90
2022-10-22T13:57:16.109Z,25.90
2022-10-22T13:59:48.752Z,16.63
2022-10-22T14:02:24.963Z,15.13
2022-10-22T14:05:03.329Z,24.35
2022-10-22T14:07:36.798Z,27.00
2022-10-22T14:10:16.414Z,27.15
2022-10-22T14:12:52.480Z,22.83
2022-10-22T14:15:28.809Z,21.52
2022-10-22T14:18:02.798Z,16.67
2022-10-22T14:20:36.623Z,17.30
2022-10-22T14:23:14.739Z,16.13
2022-10-22T14:25:48.091Z,36.10
2022-10-22T14:28:21.324Z,31.08
2022-10-22T14:30:54.685Z,25.33
2022-10-22T14:33:31.918Z,27.60
2022-10-22T14:36:05.554Z,27.50
2022-10-22T14:38:38.478Z,47.03
2022-10-22T14:41:16.362Z,30.15
2022-10-22T14:43:50.106Z,41.47
2022-10-22T14:46:22.804Z,25.87
2022-10-22T14:48:55.590Z,28.35
2022-10-22T14:51:28.594Z,28.10
2022-10-22T14:54:01.401Z,21.63
2022-10-22T14:56:34.542Z,24.38
2022-10-22T14:59:08.215Z,16.38
2022-10-22T15:01:43.296Z,20.95
2022-10-22T15:04:17.825Z,19.27
2022-10-22T15:06:51.339Z,19.30
2022-10-22T15:09:24.505Z,15.98
2022-10-22T15:11:57.308Z,20.40
2022-10-22T15:14:30.280Z,13.10
2022-10-22T15:17:03.526Z,18.33
2022-10-22T15:19:36.397Z,10.90
2022-10-22T15:22:09.289Z,7.43
2022-10-22T15:24:45.403Z,9.63
2022-10-22T15:27:18.004Z,12.23
2022-10-22T15:29:51.034Z,12.70
2022-10-22T15:32:23.504Z,10.43
2022-10-22T15:34:56.607Z,9.13
2022-10-22T15:37:29.233Z,8.05
2022-10-22T15:40:03.961Z,11.50
2022-10-22T15:42:39.460Z,10.32
2022-10-22T15:45:13.008Z,20.40
2022-10-22T15:47:47.560Z,15.35
2022-10-22T15:50:21.036Z,17.85
2022-10-22T15:52:54.540Z,32.70
2022-10-22T15:55:27.398Z,67.78
2022-10-22T15:58:03.199Z,73.45
2022-10-22T16:00:37.096Z,68.38
2022-10-22T16:03:09.719Z,56.17
2022-10-22T16:05:49.874Z,39.20
2022-10-22T16:08:22.356Z,54.72
2022-10-22T16:10:55.276Z,35.03
2022-10-22T16:13:27.955Z,28.27
2022-10-22T16:16:04.581Z,34.50
2022-10-22T16:18:38.353Z,32.88
2022-10-22T16:21:15.048Z,20.25
2022-10-22T16:23:48.010Z,19.37
2022-10-22T16:26:21.180Z,16.70
2022-10-22T16:28:53.659Z,14.02
2022-10-22T16:31:26.519Z,11.63
2022-10-22T16:33:59.045Z,11.55
2022-10-22T16:36:32.220Z,19.33
2022-10-22T16:39:05.581Z,24.63
2022-10-22T16:41:38.589Z,25.80
2022-10-22T16:44:11.088Z,27.47
2022-10-22T16:46:44.456Z,24.57
2022-10-22T16:49:17.335Z,38.95
2022-10-22T16:51:50.151Z,29.17
2022-10-22T16:54:22.577Z,34.10
2022-10-22T16:56:55.373Z,25.42
2022-10-22T16:59:27.913Z,24.40
2022-10-22T17:02:00.699Z,24.92
2022-10-22T17:04:34.465Z,24.60
2022-10-22T17:07:07.217Z,28.83
2022-10-22T17:09:39.780Z,30.98
2022-10-22T17:12:12.629Z,19.33
2022-10-22T17:14:46.917Z,28.05
2022-10-22T17:17:19.833Z,24.95
2022-10-22T17:19:52.272Z,30.92
2022-10-22T17:22:26.658Z,31.13
2022-10-22T17:25:11.576Z,29.58
2022-10-22T17:27:44.848Z,33.38
2022-10-22T17:30:22.030Z,37.15
2022-10-22T17:32:57.780Z,21.35
2022-10-22T17:35:30.269Z,25.58
2022-10-22T17:38:03.181Z,16.70
2022-10-22T17:40:35.822Z,20.20
2022-10-22T17:43:08.699Z,25.55
2022-10-22T17:45:41.305Z,12.80
2022-10-22T17:48:14.045Z,13.03
2022-10-22T17:50:49.693Z,14.30
2022-10-22T17:53:24.902Z,14.17
2022-10-22T17:56:01.379Z,11.60
2022-10-22T17:58:34.456Z,12.38
2022-10-22T18:01:07.288Z,9.90
2022-10-22T18:03:40.051Z,13.88
2022-10-22T18:06:12.660Z,13.77
2022-10-22T18:08:45.595Z,13.63
2022-10-22T18:11:19.654Z,15.05
2022-10-22T18:13:54.463Z,12.30
2022-10-22T18:16:27.137Z,10.53
2022-10-22T18:19:00.511Z,14.52
2022-10-22T18:21:33.703Z,14.40
2022-10-22T18:24:06.652Z,13.45
2022-10-22T18:26:40.404Z,15.68
2022-10-22T18:29:14.679Z,13.45
2022-10-22T18:31:47.773Z,9.80
2022-10-22T18:34:23.148Z,9.82
2022-10-22T18:36:56.926Z,10.02
2022-10-22T18:39:29.769Z,12.30
2022-10-22T18:42:07.477Z,10.88
2022-10-22T18:44:40.267Z,9.35
2022-10-22T18:47:12.851Z,12.32
2022-10-22T18:49:45.750Z,14.27
2022-10-22T18:52:18.521Z,18.88
2022-10-22T18:54:51.347Z,17.13
2022-10-22T18:57:24.815Z,15.88
2022-10-22T18:59:59.478Z,13.93
2022-10-22T19:02:32.158Z,10.70
2022-10-22T19:05:05.115Z,14.33
2022-10-22T19:07:37.834Z,14.60
2022-10-22T19:10:10.603Z,12.07
2022-10-22T19:12:43.012Z,14.43
2022-10-22T19:15:16.401Z,9.88
2022-10-22T19:17:49.040Z,12.05
2022-10-22T19:20:21.876Z,12.43
2022-10-22T19:22:56.174Z,15.95
2022-10-22T19:25:29.181Z,15.10
2022-10-22T19:28:01.623Z,13.32
2022-10-22T19:30:34.551Z,14.52
2022-10-22T19:33:07.748Z,17.20
2022-10-22T19:35:40.526Z,17.40
2022-10-22T19:38:13.007Z,13.25
2022-10-22T19:40:45.853Z,16.02
2022-10-22T19:43:19.093Z,11.63
2022-10-22T19:45:55.337Z,13.13
2022-10-22T19:48:29.071Z,19.88
2022-10-22T19:51:03.443Z,15.00
2022-10-22T19:53:37.134Z,13.27
2022-10-22T19:56:11.879Z,15.93
2022-10-22T19:58:44.785Z,23.88
2022-10-22T20:01:19.333Z,20.38
2022-10-22T20:03:54.251Z,13.68
2022-10-22T20:06:36.589Z,17.77
2022-10-22T20:09:21.727Z,11.68
2022-10-22T20:11:59.001Z,11.13
2022-10-22T20:14:31.541Z,9.25
2022-10-22T20:17:04.550Z,7.90
2022-10-22T20:19:37.380Z,8.57
2022-10-22T20:22:18.714Z,8.90
2022-10-22T20:25:00.678Z,9.88
2022-10-22T20:27:42.183Z,11.25
2022-10-22T20:30:26.346Z,13.00
2022-10-22T20:33:21.217Z,15.32
2022-10-22T20:36:06.723Z,16.35
2022-10-22T20:38:56.249Z,11.20
2022-10-22T20:41:46.243Z,11.85
2022-10-22T20:44:46.052Z,7.65
2022-10-22T20:47:34.196Z,18.20
2022-10-22T20:50:37.126Z,12.20
2022-10-22T20:53:19.467Z,11.45
2022-10-22T20:56:05.551Z,11.43
2022-10-22T20:58:55.027Z,12.00
2022-10-22T21:01:44.605Z,12.68
2022-10-22T21:04:33.271Z,9.98
2022-10-22T21:07:22.166Z,13.70
2022-10-22T21:10:09.421Z,22.63
2022-10-22T21:12:52.269Z,14.30
2022-10-22T21:15:45.499Z,18.02
2022-10-22T21:18:31.503Z,10.13
2022-10-22T21:21:23.598Z,12.98
2022-10-22T21:24:07.438Z,10.10
2022-10-22T21:26:54.362Z,10.30
2022-10-22T21:29:47.291Z,10.32
2022-10-22T21:32:33.641Z,14.25
2022-10-22T21:35:16.829Z,9.25
2022-10-22T21:37:58.075Z,16.50
2022-10-22T21:40:44.344Z,16.35
2022-10-22T21:43:26.957Z,14.52
2022-10-22T21:46:16.329Z,15.38
2022-10-22T21:49:06.696Z,17.63
2022-10-22T21:51:52.583Z,12.83
2022-10-22T21:54:48.718Z,12.53
2022-10-22T21:57:35.090Z,11.20
2022-10-22T22:00:30.101Z,12.10
2022-10-22T22:03:11.327Z,21.88
2022-10-22T22:05:43.857Z,15.05
2022-10-22T22:08:16.767Z,11.50
2022-10-22T22:10:49.243Z,13.02
2022-10-22T22:13:25.453Z,14.40
2022-10-22T22:16:02.601Z,13.25
2022-10-22T22:18:35.821Z,10.20
2022-10-22T22:21:09.950Z,8.80
2022-10-22T22:23:44.360Z,12.93
2022-10-22T22:26:18.863Z,11.77
2022-10-22T22:28:51.694Z,12.52
2022-10-22T22:31:25.909Z,8.55
2022-10-22T22:33:59.963Z,9.68
2022-10-22T22:36:33.909Z,13.70
2022-10-22T22:39:07.547Z,11.73
2022-10-22T22:41:40.535Z,9.90
2022-10-22T22:44:13.662Z,10.38
2022-10-22T22:46:46.553Z,7.75
2022-10-22T22:49:19.710Z,9.77
2022-10-22T22:51:52.323Z,6.40
2022-10-22T22:54:25.185Z,9.50
2022-10-22T22:56:57.878Z,7.20
2022-10-22T22:59:30.656Z,7.03
2022-10-22T23:02:03.601Z,6.72
2022-10-22T23:04:36.334Z,6.28
2022-10-22T23:07:09.186Z,7.68
2022-10-22T23:09:42.123Z,9.02
2022-10-22T23:12:14.563Z,7.70
2022-10-22T23:14:49.883Z,5.95
2022-10-22T23:17:22.453Z,7.97
2022-10-22T23:19:55.284Z,7.72
2022-10-22T23:22:27.683Z,11.90
2022-10-22T23:25:00.446Z,10.45
2022-10-22T23:27:32.991Z,8.70
2022-10-22T23:30:05.994Z,9.00
2022-10-22T23:32:39.138Z,9.07
2022-10-22T23:35:11.956Z,10.77
2022-10-22T23:37:44.623Z,12.23
2022-10-22T23:40:17.664Z,7.10
2022-10-22T23:42:50.235Z,8.57
2022-10-22T23:45:23.241Z,11.60
2022-10-22T23:47:55.677Z,8.25
2022-10-22T23:50:28.812Z,6.53
2022-10-22T23:53:01.367Z,7.40
2022-10-22T23:55:36.971Z,6.53
2022-10-22T23:58:09.923Z,5.70
